Time;durP1;ratioP1;P1;durP2;ratioP2;P2;SDS_P1;SDS_P2;PMS_P1;PMS_P2;Temp;Humidity;BMP_temperature;BMP_pressure;BME280_temperature;BME280_humidity;BME280_pressure;Samples;Min_cycle;Max_cycle;Signal;HPM_P1;HPM_P2
2022/02/13 00:01:11;;;;;;;;;32.75;27.25;;;;;5.38;51.29;101609.41;5041966;28;46439;-42
2022/02/13 00:03:36;;;;;;;;;27.00;25.50;;;;;5.36;50.98;101612.00;5041959;28;45315;-41
2022/02/13 00:06:02;;;;;;;;;34.75;32.25;;;;;5.38;51.26;101614.63;5042278;28;45491;-43
2022/02/13 00:08:27;;;;;;;;;30.50;30.25;;;;;5.37;50.98;101612.84;5042063;28;45246;-42
2022/02/13 00:10:53;;;;;;;;;31.75;25.50;;;;;5.36;50.92;101598.97;5040497;28;47201;-42
2022/02/13 00:13:18;;;;;;;;;31.00;27.00;;;;;5.33;51.40;101595.41;5042039;28;45205;-43
2022/02/13 00:15:43;;;;;;;;;31.00;29.00;;;;;5.30;51.28;101595.34;5042129;28;45169;-41
2022/02/13 00:18:09;;;;;;;;;33.25;31.00;;;;;5.28;51.37;101591.81;5041625;28;45421;-41
2022/02/13 00:20:34;;;;;;;;;33.75;33.75;;;;;5.27;51.34;101582.25;5041785;28;46109;-42
2022/02/13 00:22:59;;;;;;;;;36.25;32.00;;;;;5.23;51.33;101572.59;5041810;28;45235;-42
2022/02/13 00:25:25;;;;;;;;;31.25;27.50;;;;;5.24;51.37;101571.75;5041960;28;45459;-43
2022/02/13 00:27:50;;;;;;;;;37.25;31.50;;;;;5.21;51.40;101565.63;5041780;28;45580;-42
2022/02/13 00:30:17;;;;;;;;;29.25;24.50;;;;;5.23;51.46;101567.41;5041828;28;45300;-42
2022/02/13 00:32:46;;;;;;;;;30.25;25.75;;;;;5.19;51.37;101561.22;5041252;28;45427;-42
2022/02/13 00:35:12;;;;;;;;;33.00;31.50;;;;;5.21;51.45;101560.41;5042023;28;45322;-41
2022/02/13 00:37:39;;;;;;;;;35.75;35.50;;;;;5.20;51.34;101558.66;5041759;28;45220;-42
2022/02/13 00:40:06;;;;;;;;;35.50;30.00;;;;;5.18;51.56;101546.44;5040536;28;47153;-41
2022/02/13 00:42:31;;;;;;;;;31.50;29.75;;;;;5.17;51.68;101539.47;5041383;28;45393;-41
2022/02/13 00:44:59;;;;;;;;;30.75;30.00;;;;;5.18;51.16;101529.09;5041518;28;45488;-41
2022/02/13 00:47:24;;;;;;;;;35.00;30.75;;;;;5.18;51.13;101529.09;5041099;28;45414;-41
2022/02/13 00:49:49;;;;;;;;;35.50;29.25;;;;;5.13;51.40;101515.09;5041336;28;46203;-42
2022/02/13 00:52:15;;;;;;;;;35.50;29.75;;;;;5.15;51.41;101523.81;5040123;28;45303;-41
2022/02/13 00:54:40;;;;;;;;;29.50;26.50;;;;;5.14;51.65;101506.41;5041606;28;45294;-41
2022/02/13 00:57:05;;;;;;;;;40.00;35.75;;;;;5.14;51.30;101510.75;5041361;28;45397;-42
2022/02/13 00:59:31;;;;;;;;;37.00;30.75;;;;;5.13;51.60;101506.38;5041255;28;46176;-41
2022/02/13 01:01:57;;;;;;;;;33.50;29.00;;;;;5.12;51.23;101507.22;5040978;28;45391;-41
2022/02/13 01:04:22;;;;;;;;;34.50;30.75;;;;;5.13;51.14;101507.28;5041669;28;45280;-42
2022/02/13 01:06:48;;;;;;;;;34.75;32.75;;;;;5.12;51.32;101502.91;5041189;28;45548;-42
2022/02/13 01:09:13;;;;;;;;;34.50;29.50;;;;;5.09;51.30;101496.75;5041080;28;46108;-42
2022/02/13 01:11:39;;;;;;;;;32.25;29.50;;;;;5.08;51.28;101498.50;5040978;28;45307;-42
2022/02/13 01:14:05;;;;;;;;;31.00;25.75;;;;;5.00;51.39;101482.69;5041404;28;45243;-42
2022/02/13 01:16:30;;;;;;;;;29.75;25.50;;;;;5.00;51.47;101480.06;5039830;28;45292;-42
2022/02/13 01:18:56;;;;;;;;;30.75;27.00;;;;;4.97;51.34;101489.53;5040774;28;45252;-41
2022/02/13 01:21:22;;;;;;;;;33.50;29.00;;;;;4.91;51.39;101486.84;5039712;28;45298;-41
2022/02/13 01:23:48;;;;;;;;;33.00;31.00;;;;;4.89;51.50;101492.00;5041086;28;45421;-42
2022/02/13 01:26:15;;;;;;;;;28.25;27.00;;;;;4.88;51.72;101485.91;5039516;28;45338;-43
2022/02/13 01:28:41;;;;;;;;;32.75;26.00;;;;;4.87;51.32;101483.28;5041017;28;46325;-42
2022/02/13 01:31:08;;;;;;;;;31.75;27.25;;;;;4.85;51.55;101482.38;5039650;28;45792;-41
2022/02/13 01:33:34;;;;;;;;;27.25;27.25;;;;;4.80;51.46;101477.03;5039491;28;45353;-42
2022/02/13 01:36:00;;;;;;;;;29.50;26.50;;;;;4.80;51.63;101479.66;5040699;28;45524;-42
2022/02/13 01:38:27;;;;;;;;;29.75;28.25;;;;;4.79;51.69;101475.31;5040811;28;45901;-42
2022/02/13 01:40:53;;;;;;;;;32.75;30.00;;;;;4.77;51.70;101477.00;5040470;28;45427;-42
2022/02/13 01:43:18;;;;;;;;;28.25;26.75;;;;;4.74;51.63;101474.31;5040779;28;45354;-42
2022/02/13 01:45:44;;;;;;;;;28.25;25.75;;;;;4.76;51.55;101474.38;5040598;28;45529;-41
2022/02/13 01:48:10;;;;;;;;;25.75;23.25;;;;;4.74;51.48;101468.22;5038972;28;46216;-42
2022/02/13 01:50:36;;;;;;;;;31.50;28.75;;;;;4.75;51.81;101472.59;5040499;28;45279;-42
2022/02/13 01:53:03;;;;;;;;;28.75;24.25;;;;;4.75;51.57;101475.22;5040551;28;45223;-43
2022/02/13 01:55:28;;;;;;;;;31.25;29.00;;;;;4.75;51.58;101477.81;5040183;28;45346;-42
2022/02/13 01:57:55;;;;;;;;;36.75;27.25;;;;;4.74;51.64;101479.50;5040510;28;45333;-43
2022/02/13 02:00:20;;;;;;;;;30.75;27.25;;;;;4.71;52.12;101482.06;5040300;28;45247;-42
2022/02/13 02:02:45;;;;;;;;;30.25;26.00;;;;;4.71;51.74;101476.88;5040469;28;45321;-42
2022/02/13 02:05:11;;;;;;;;;32.75;27.75;;;;;4.71;51.62;101474.25;5040318;28;45210;-42
2022/02/13 02:07:36;;;;;;;;;28.50;25.50;;;;;4.71;51.52;101476.88;5040388;28;45351;-42
2022/02/13 02:10:03;;;;;;;;;28.50;26.00;;;;;4.69;51.81;101473.34;5040087;28;45390;-42
2022/02/13 02:12:28;;;;;;;;;22.75;22.75;;;;;4.67;51.56;101478.50;5040369;28;45318;-42
2022/02/13 02:14:53;;;;;;;;;31.00;24.75;;;;;4.64;51.73;101468.03;5038867;28;45346;-42
2022/02/13 02:17:19;;;;;;;;;28.00;23.50;;;;;4.58;51.53;101454.91;5039848;28;46254;-42
2022/02/13 02:19:44;;;;;;;;;27.50;25.25;;;;;4.65;51.59;101469.78;5040131;28;45303;-42
2022/02/13 02:22:10;;;;;;;;;23.25;20.25;;;;;4.64;51.79;101464.53;5040382;28;45323;-42
2022/02/13 02:24:35;;;;;;;;;32.25;25.75;;;;;4.62;51.89;101448.03;5039961;28;45451;-42
2022/02/13 02:27:02;;;;;;;;;32.25;27.25;;;;;4.61;51.86;101439.31;5040079;28;46392;-42
2022/02/13 02:29:28;;;;;;;;;29.25;25.50;;;;;4.56;51.62;101426.19;5039932;28;45435;-43
2022/02/13 02:31:53;;;;;;;;;28.50;23.75;;;;;4.60;51.74;101428.88;5039962;28;45241;-43
2022/02/13 02:34:19;;;;;;;;;25.50;23.00;;;;;4.56;51.77;101418.38;5039910;28;45473;-42
2022/02/13 02:36:44;;;;;;;;;26.25;23.50;;;;;4.56;51.94;101407.09;5039938;28;45263;-43
2022/02/13 02:39:10;;;;;;;;;28.00;27.00;;;;;4.56;51.72;101400.16;5039574;28;45283;-43
2022/02/13 02:41:36;;;;;;;;;27.00;24.75;;;;;4.57;51.90;101395.84;5040015;28;45326;-42
2022/02/13 02:44:03;;;;;;;;;30.00;28.00;;;;;4.55;52.05;101382.81;5039619;28;45464;-43
2022/02/13 02:46:29;;;;;;;;;26.50;25.00;;;;;4.55;51.71;101382.81;5039722;28;45982;-44
2022/02/13 02:48:54;;;;;;;;;28.00;26.50;;;;;4.55;51.80;101374.09;5039238;28;45340;-43
2022/02/13 02:51:19;;;;;;;;;28.25;23.00;;;;;4.53;51.94;101366.28;5039925;28;45269;-43
2022/02/13 02:53:45;;;;;;;;;31.25;27.00;;;;;4.52;52.00;101374.94;5039829;28;45283;-43
2022/02/13 02:56:11;;;;;;;;;27.50;23.25;;;;;4.51;51.71;101367.94;5039411;28;46136;-42
2022/02/13 02:58:37;;;;;;;;;26.00;25.50;;;;;4.47;51.72;101363.53;5039690;28;45263;-43
2022/02/13 03:01:03;;;;;;;;;23.00;23.00;;;;;4.42;52.12;101359.97;5039758;28;45411;-43
2022/02/13 03:03:29;;;;;;;;;29.50;24.50;;;;;4.45;52.05;101365.22;5039814;28;45396;-43
2022/02/13 03:05:55;;;;;;;;;25.25;25.25;;;;;4.44;51.88;101355.69;5043068;28;46054;-43
2022/02/13 03:08:21;;;;;;;;;26.00;24.50;;;;;4.39;51.87;101359.91;5043234;28;45248;-44
2022/02/13 03:10:47;;;;;;;;;25.50;23.00;;;;;4.40;51.86;101364.25;5043075;28;45453;-42
2022/02/13 03:13:16;;;;;;;;;27.75;23.50;;;;;4.40;51.91;101359.03;5042974;28;45336;-43
2022/02/13 03:15:41;;;;;;;;;28.50;26.00;;;;;4.37;52.10;101359.00;5043043;28;46302;-43
2022/02/13 03:18:07;;;;;;;;;31.00;25.75;;;;;4.35;52.13;101353.75;5042696;28;45318;-42
2022/02/13 03:20:32;;;;;;;;;29.75;27.00;;;;;4.34;51.92;101358.91;5043095;28;45434;-42
2022/02/13 03:22:58;;;;;;;;;30.75;26.00;;;;;4.29;52.49;101355.34;5042793;28;45232;-43
2022/02/13 03:25:23;;;;;;;;;24.25;22.75;;;;;4.30;52.32;101350.19;5042679;28;45239;-43
2022/02/13 03:27:48;;;;;;;;;29.00;26.50;;;;;4.29;51.95;101339.72;5042710;28;45162;-43
2022/02/13 03:30:14;;;;;;;;;25.25;23.25;;;;;4.32;51.93;101337.22;5042784;28;45779;-43
2022/02/13 03:32:39;;;;;;;;;25.50;23.50;;;;;4.32;51.93;101340.66;5042476;28;45418;-42
2022/02/13 03:35:05;;;;;;;;;24.25;23.25;;;;;4.32;52.03;101330.25;5042576;28;46097;-42
2022/02/13 03:37:30;;;;;;;;;30.00;27.50;;;;;4.33;52.40;101328.56;5041278;28;45255;-43
2022/02/13 03:39:56;;;;;;;;;27.25;23.00;;;;;4.33;52.06;101325.94;5042587;28;45189;-42
2022/02/13 03:42:21;;;;;;;;;30.50;22.50;;;;;4.31;51.96;101315.50;5042758;28;45525;-43
2022/02/13 03:44:48;;;;;;;;;28.50;25.50;;;;;4.30;52.08;101307.66;5042174;28;45363;-44
2022/02/13 03:47:14;;;;;;;;;29.25;23.75;;;;;4.29;52.18;101308.50;5042091;28;45500;-42
2022/02/13 03:49:39;;;;;;;;;25.75;21.25;;;;;4.27;52.29;101308.47;5041226;28;45398;-42
2022/02/13 03:52:05;;;;;;;;;29.25;23.75;;;;;4.28;52.34;101306.78;5042664;28;45331;-42
2022/02/13 03:54:31;;;;;;;;;26.50;23.75;;;;;4.29;52.33;101305.91;5042292;28;45402;-42
2022/02/13 03:56:56;;;;;;;;;24.50;22.25;;;;;4.30;52.27;101310.25;5041117;28;45271;-44
2022/02/13 03:59:22;;;;;;;;;25.25;22.75;;;;;4.26;52.42;101298.91;5042487;28;45315;-42
2022/02/13 04:01:47;;;;;;;;;23.50;22.50;;;;;4.29;52.15;101304.19;5042132;28;45218;-43
2022/02/13 04:04:12;;;;;;;;;24.50;21.75;;;;;4.29;51.99;101285.06;5042217;28;46229;-42
2022/02/13 04:06:37;;;;;;;;;24.50;19.00;;;;;4.28;52.07;101291.16;5042236;28;45174;-44
2022/02/13 04:09:03;;;;;;;;;24.50;22.50;;;;;4.27;52.31;101286.78;5041011;28;45253;-42
2022/02/13 04:11:28;;;;;;;;;25.75;24.00;;;;;4.23;52.11;101297.13;5042075;28;45244;-43
2022/02/13 04:13:53;;;;;;;;;23.75;21.50;;;;;4.25;51.93;101286.72;5041965;28;47027;-43
2022/02/13 04:16:19;;;;;;;;;26.75;21.00;;;;;4.24;52.20;101295.41;5040882;28;45267;-42
2022/02/13 04:18:44;;;;;;;;;23.75;20.50;;;;;4.22;52.44;101292.75;5041930;28;45295;-41
2022/02/13 04:21:10;;;;;;;;;24.00;21.00;;;;;4.22;52.00;101294.50;5041965;28;45182;-42
2022/02/13 04:23:35;;;;;;;;;23.75;22.50;;;;;4.21;52.41;101290.13;5040487;28;47206;-42
2022/02/13 04:26:02;;;;;;;;;28.75;23.75;;;;;4.23;51.93;101301.47;5041911;28;45358;-42
2022/02/13 04:28:28;;;;;;;;;25.25;23.00;;;;;4.20;52.66;101289.25;5041994;28;45509;-42
2022/02/13 04:30:54;;;;;;;;;24.25;23.25;;;;;4.17;52.24;101276.19;5041985;28;45411;-42
2022/02/13 04:33:20;;;;;;;;;25.50;22.00;;;;;4.21;52.30;101277.13;5041531;28;45431;-43
2022/02/13 04:35:45;;;;;;;;;28.00;26.25;;;;;4.20;51.95;101276.25;5041889;28;45373;-41
2022/02/13 04:38:11;;;;;;;;;28.25;19.50;;;;;4.19;52.10;101281.44;5040568;28;45421;-44
2022/02/13 04:40:36;;;;;;;;;23.75;22.00;;;;;4.16;52.54;101276.16;5041707;28;45436;-42
2022/02/13 04:43:02;;;;;;;;;27.75;24.00;;;;;4.15;52.29;101270.09;5041210;28;46110;-42
2022/02/13 04:45:27;;;;;;;;;23.50;21.50;;;;;4.16;52.19;101261.41;5041674;28;45252;-43
2022/02/13 04:47:52;;;;;;;;;21.50;21.50;;;;;4.17;52.31;101260.56;5041317;28;45294;-43
2022/02/13 04:50:21;;;;;;;;;22.00;18.25;;;;;4.17;52.35;101257.97;5040327;28;45414;-42
2022/02/13 04:52:54;;;;;;;;;20.50;17.50;;;;;4.19;52.15;101256.28;5041197;28;46335;-43
2022/02/13 04:55:21;;;;;;;;;20.50;20.00;;;;;4.16;51.76;101243.19;5040102;28;45295;-43
2022/02/13 04:57:48;;;;;;;;;22.25;20.25;;;;;4.17;52.18;101246.69;5040419;28;45413;-43
2022/02/13 05:00:15;;;;;;;;;30.25;26.50;;;;;4.17;52.22;101236.28;5041174;28;45453;-43
2022/02/13 05:02:41;;;;;;;;;23.75;20.50;;;;;4.17;52.25;101234.56;5040983;28;46077;-42
2022/02/13 05:05:08;;;;;;;;;25.25;22.00;;;;;4.18;52.43;101227.66;5041174;28;45270;-43
2022/02/13 05:07:34;;;;;;;;;19.25;19.00;;;;;4.19;52.19;101226.81;5041465;28;45364;-41
2022/02/13 05:10:00;;;;;;;;;24.00;20.50;;;;;4.15;52.22;101225.84;5041082;28;45421;-41
2022/02/13 05:12:26;;;;;;;;;27.25;22.75;;;;;4.16;52.32;101221.53;5041149;28;46307;-45
2022/02/13 05:14:52;;;;;;;;;28.50;23.75;;;;;4.15;52.16;101218.06;5041175;28;45238;-42
2022/02/13 05:17:19;;;;;;;;;25.25;20.25;;;;;4.15;52.06;101217.16;5041101;28;45335;-43
2022/02/13 05:19:44;;;;;;;;;25.75;23.25;;;;;4.12;52.34;101220.56;5040899;28;45501;-42
2022/02/13 05:22:10;;;;;;;;;19.50;19.25;;;;;4.11;52.51;101211.00;5039673;28;45477;-43
2022/02/13 05:24:36;;;;;;;;;25.50;25.00;;;;;4.09;52.18;101207.53;5040712;28;45264;-41
2022/02/13 05:27:02;;;;;;;;;21.50;20.25;;;;;4.07;52.41;101204.91;5040472;28;45350;-43
2022/02/13 05:29:27;;;;;;;;;31.00;23.50;;;;;4.06;52.51;101194.44;5040746;28;45416;-42
2022/02/13 05:31:53;;;;;;;;;25.00;23.25;;;;;4.03;52.52;101187.47;5040759;28;46200;-44
2022/02/13 05:34:18;;;;;;;;;27.00;22.25;;;;;4.03;52.18;101191.78;5040741;28;45230;-42
2022/02/13 05:36:44;;;;;;;;;20.25;15.75;;;;;4.02;52.21;101190.03;5041102;28;45250;-44
2022/02/13 05:39:10;;;;;;;;;22.25;20.75;;;;;4.01;52.39;101186.56;5040853;28;45434;-43
2022/02/13 05:41:35;;;;;;;;;24.25;22.50;;;;;4.00;51.93;101186.50;5040602;28;46139;-41
2022/02/13 05:44:01;;;;;;;;;25.50;22.75;;;;;3.99;52.42;101175.25;5040464;28;45307;-43
2022/02/13 05:46:26;;;;;;;;;22.50;20.50;;;;;3.97;52.55;101168.25;5041004;28;45513;-42
2022/02/13 05:48:52;;;;;;;;;23.50;21.50;;;;;3.98;52.49;101165.69;5040102;28;45342;-42
2022/02/13 05:51:18;;;;;;;;;24.00;22.50;;;;;3.99;52.68;101163.97;5040530;28;46344;-43
2022/02/13 05:53:43;;;;;;;;;25.00;24.00;;;;;3.98;52.17;101163.09;5039145;28;45329;-42
2022/02/13 05:56:09;;;;;;;;;26.25;21.00;;;;;3.95;52.13;101165.63;5040689;28;45336;-43
2022/02/13 05:58:38;;;;;;;;;25.25;23.75;;;;;3.96;52.14;101175.19;5040433;28;45339;-42
2022/02/13 06:01:04;;;;;;;;;27.00;21.75;;;;;3.94;52.84;101165.59;5040201;28;45337;-42
2022/02/13 06:03:29;;;;;;;;;24.25;19.50;;;;;3.94;52.27;101173.38;5040128;28;45339;-42
2022/02/13 06:05:55;;;;;;;;;22.25;20.50;;;;;3.90;52.09;101165.53;5039269;28;45356;-41
2022/02/13 06:08:20;;;;;;;;;20.00;20.00;;;;;3.92;52.37;101162.09;5040284;28;45481;-41
2022/02/13 06:10:46;;;;;;;;;25.50;22.25;;;;;3.90;52.43;101160.34;5040018;28;45327;-43
2022/02/13 06:13:11;;;;;;;;;25.00;20.75;;;;;3.91;52.26;101161.19;5040304;28;45153;-42
2022/02/13 06:15:37;;;;;;;;;25.00;24.00;;;;;3.86;52.51;101163.72;5040314;28;45385;-43
2022/02/13 06:18:03;;;;;;;;;22.25;20.00;;;;;3.82;52.64;101156.69;5039902;28;45420;-42
2022/02/13 06:20:29;;;;;;;;;24.50;20.50;;;;;3.83;52.28;101155.84;5040160;28;46852;-42
2022/02/13 06:22:54;;;;;;;;;27.75;23.75;;;;;3.83;52.55;101149.78;5039951;28;45264;-42
2022/02/13 06:25:19;;;;;;;;;21.00;20.50;;;;;3.87;52.24;101149.00;5040147;28;45366;-43
2022/02/13 06:27:45;;;;;;;;;23.75;23.75;;;;;3.87;52.26;101149.00;5040004;28;45604;-42
2022/02/13 06:30:10;;;;;;;;;22.75;22.00;;;;;3.84;52.65;101144.63;5039910;28;47136;-43
2022/02/13 06:32:36;;;;;;;;;27.25;22.00;;;;;3.88;52.22;101153.34;5039651;28;45336;-42
2022/02/13 06:35:01;;;;;;;;;27.00;24.25;;;;;3.89;52.68;101158.56;5040119;28;45255;-44
2022/02/13 06:37:26;;;;;;;;;23.25;22.00;;;;;3.91;52.34;101169.00;5039680;28;45319;-44
2022/02/13 06:39:52;;;;;;;;;25.75;24.25;;;;;3.92;52.31;101168.16;5039001;28;45300;-44
2022/02/13 06:42:17;;;;;;;;;27.25;25.25;;;;;3.94;52.52;101162.97;5039915;28;45212;-44
2022/02/13 06:44:42;;;;;;;;;20.25;18.50;;;;;3.93;52.63;101164.72;5039724;28;45178;-43
2022/02/13 06:47:08;;;;;;;;;26.00;22.00;;;;;3.95;52.19;101162.16;5039641;28;45204;-44
2022/02/13 06:49:33;;;;;;;;;23.75;22.00;;;;;3.97;52.65;101156.13;5039588;28;45223;-44
2022/02/13 06:51:58;;;;;;;;;26.00;22.75;;;;;3.98;52.31;101157.88;5039778;28;45417;-44
2022/02/13 06:54:24;;;;;;;;;26.00;21.00;;;;;3.99;52.42;101154.44;5039662;28;45284;-43
2022/02/13 06:56:49;;;;;;;;;19.75;17.25;;;;;3.99;52.24;101138.84;5039643;28;45539;-44
2022/02/13 06:59:15;;;;;;;;;22.75;22.25;;;;;4.00;52.17;101135.41;5039362;28;46130;-44
2022/02/13 07:01:41;;;;;;;;;22.50;20.75;;;;;3.99;52.89;101128.44;5039267;28;45184;-44
2022/02/13 07:04:06;;;;;;;;;18.50;16.00;;;;;4.02;52.44;101122.41;5039633;28;45235;-43
2022/02/13 07:06:31;;;;;;;;;25.75;23.00;;;;;4.02;52.65;101114.59;5039622;28;45276;-44
2022/02/13 07:08:57;;;;;;;;;28.00;25.75;;;;;4.01;52.57;101113.75;5039311;28;45222;-43
2022/02/13 07:11:22;;;;;;;;;23.50;21.50;;;;;4.02;52.64;101112.88;5039502;28;45281;-43
2022/02/13 07:13:47;;;;;;;;;29.00;22.75;;;;;4.01;52.83;101118.06;5039565;28;45310;-44
2022/02/13 07:16:13;;;;;;;;;24.00;23.75;;;;;4.01;52.54;101115.44;5039557;28;45325;-43
2022/02/13 07:18:38;;;;;;;;;24.50;24.50;;;;;3.99;52.81;101114.56;5039075;28;46106;-44
2022/02/13 07:21:03;;;;;;;;;30.25;26.50;;;;;3.97;52.63;101105.84;5038051;28;45324;-43
2022/02/13 07:23:29;;;;;;;;;25.00;22.50;;;;;3.99;52.59;101112.81;5039253;28;45437;-44
2022/02/13 07:25:54;;;;;;;;;29.00;25.00;;;;;3.98;52.82;101099.81;5039218;28;45292;-45
2022/02/13 07:31:03;;;;;;;;;27.00;23.00;;;;;4.02;52.82;101109.41;5039135;28;45310;-43
2022/02/13 07:33:29;;;;;;;;;30.00;24.75;;;;;4.00;52.68;101108.50;5039202;28;45272;-46
2022/02/13 07:35:54;;;;;;;;;21.50;19.00;;;;;4.01;52.28;101105.03;5039388;28;45311;-47
2022/02/13 07:38:19;;;;;;;;;33.00;28.50;;;;;4.03;52.82;101108.56;5039079;28;46207;-45
2022/02/13 07:40:45;;;;;;;;;28.00;18.25;;;;;4.02;52.83;101102.47;5039118;28;45334;-44
2022/02/13 07:43:11;;;;;;;;;26.25;24.25;;;;;4.02;52.64;101106.81;5038974;28;45450;-44
2022/02/13 07:45:37;;;;;;;;;27.25;25.00;;;;;4.02;53.18;101112.00;5039179;28;45527;-44
2022/02/13 07:48:02;;;;;;;;;29.75;26.75;;;;;4.03;53.11;101108.56;5038677;28;45174;-44
2022/02/13 07:50:27;;;;;;;;;25.50;23.50;;;;;3.94;52.76;101092.78;5040914;28;45386;-43
2022/02/13 07:52:53;;;;;;;;;28.75;26.00;;;;;4.05;52.61;101109.44;5042610;28;45173;-45
2022/02/13 07:55:18;;;;;;;;;24.50;22.75;;;;;4.07;52.97;101115.56;5042164;28;45434;-45
2022/02/13 07:57:44;;;;;;;;;30.25;27.00;;;;;4.07;52.87;101110.38;5042160;28;47036;-44
2022/02/13 08:00:10;;;;;;;;;24.75;20.50;;;;;4.09;53.16;101087.88;5042105;28;45250;-44
2022/02/13 08:02:38;;;;;;;;;24.75;23.00;;;;;4.10;52.79;101088.72;5042375;28;45291;-45
2022/02/13 08:05:04;;;;;;;;;22.00;22.00;;;;;4.11;53.14;101083.56;5041900;28;45466;-44
2022/02/13 08:07:29;;;;;;;;;28.75;26.25;;;;;4.13;53.27;101087.06;5042150;28;45948;-45
2022/02/13 08:09:55;;;;;;;;;30.00;26.00;;;;;4.16;53.12;101078.44;5041793;28;45350;-44
2022/02/13 08:12:20;;;;;;;;;22.50;18.25;;;;;4.16;53.25;101074.09;5042256;28;45244;-43
2022/02/13 08:14:45;;;;;;;;;25.50;23.00;;;;;4.19;52.77;101061.16;5041897;28;45331;-44
2022/02/13 08:17:11;;;;;;;;;26.00;22.25;;;;;4.22;52.65;101056.00;5040505;28;46990;-42
2022/02/13 08:19:38;;;;;;;;;28.50;25.25;;;;;4.26;52.95;101056.06;5041756;28;45316;-44
2022/02/13 08:22:04;;;;;;;;;27.75;23.50;;;;;4.29;53.28;101044.00;5042002;28;45169;-42
2022/02/13 08:24:30;;;;;;;;;29.50;23.75;;;;;4.33;52.90;101045.78;5041667;28;45425;-44
2022/02/13 08:26:55;;;;;;;;;27.25;25.25;;;;;4.37;53.31;101028.50;5041682;28;45446;-44
2022/02/13 08:29:21;;;;;;;;;33.00;33.00;;;;;4.41;52.92;101029.44;5040193;28;45264;-44
2022/02/13 08:31:46;;;;;;;;;29.50;24.50;;;;;4.43;53.60;101028.59;5041587;28;45153;-43
2022/02/13 08:34:12;;;;;;;;;30.50;23.00;;;;;4.48;53.34;101020.88;5041476;28;45132;-42
2022/02/13 08:36:37;;;;;;;;;22.75;22.75;;;;;4.50;53.15;101013.94;5041588;28;45456;-46
2022/02/13 08:39:03;;;;;;;;;31.50;26.00;;;;;4.56;53.38;101016.63;5041373;28;45364;-46
2022/02/13 08:41:28;;;;;;;;;24.75;22.50;;;;;4.62;53.33;101010.66;5041606;28;45377;-44
2022/02/13 08:43:53;;;;;;;;;31.75;28.75;;;;;4.63;53.11;100997.66;5041144;28;45528;-43
2022/02/13 08:46:19;;;;;;;;;28.50;25.50;;;;;4.70;53.46;101001.22;5041336;28;46142;-46
2022/02/13 08:48:44;;;;;;;;;28.25;24.25;;;;;4.71;53.54;100990.81;5040882;28;45467;-43
2022/02/13 08:51:11;;;;;;;;;41.25;36.00;;;;;4.76;53.64;100987.41;5041465;28;45338;-45
2022/02/13 08:53:37;;;;;;;;;31.50;28.50;;;;;4.80;53.47;100987.47;5041373;28;45296;-42
2022/02/13 08:56:02;;;;;;;;;29.50;28.00;;;;;4.85;53.46;100988.41;5041160;28;45227;-44
2022/02/13 08:58:28;;;;;;;;;31.75;23.50;;;;;4.88;53.67;100992.81;5041257;28;45278;-47
2022/02/13 09:00:53;;;;;;;;;33.50;27.00;;;;;4.96;53.94;100990.28;5039197;28;45261;-44
2022/02/13 09:03:19;;;;;;;;;29.25;27.25;;;;;5.01;53.84;100988.63;5040567;28;45216;-46
2022/02/13 09:05:44;;;;;;;;;32.75;29.50;;;;;5.09;53.67;100980.91;5041047;28;45303;-44
2022/02/13 09:08:09;;;;;;;;;26.75;26.00;;;;;5.15;53.85;100986.19;5041076;28;45244;-44
2022/02/13 09:10:36;;;;;;;;;27.25;24.75;;;;;5.19;54.00;100980.13;5041086;28;45212;-45
2022/02/13 09:13:01;;;;;;;;;25.50;22.75;;;;;5.21;54.18;100975.84;5041061;28;45551;-44
2022/02/13 09:15:28;;;;;;;;;26.25;24.75;;;;;5.36;54.07;100981.22;5040672;28;46931;-45
2022/02/13 09:17:54;;;;;;;;;34.75;30.50;;;;;5.43;54.03;100974.31;5039448;28;45452;-44
2022/02/13 09:20:19;;;;;;;;;30.25;23.50;;;;;5.50;54.21;100977.88;5059420;28;45249;-44
2022/02/13 09:22:45;;;;;;;;;31.75;27.50;;;;;5.59;53.88;100972.75;5060855;28;45311;-46
2022/02/13 09:25:10;;;;;;;;;33.75;32.00;;;;;5.67;54.00;100965.91;5060953;28;45432;-43
2022/02/13 09:27:35;;;;;;;;;29.50;25.75;;;;;5.75;54.24;100967.69;5060870;28;45433;-44
2022/02/13 09:30:02;;;;;;;;;31.50;26.75;;;;;5.80;54.62;100960.81;5061041;28;45449;-44
2022/02/13 09:32:28;;;;;;;;;26.00;25.00;;;;;5.88;54.33;100946.06;5060669;28;45599;-44
2022/02/13 09:34:53;;;;;;;;;29.50;23.50;;;;;5.96;54.43;100957.47;5060742;28;46795;-45
2022/02/13 09:37:19;;;;;;;;;29.75;25.50;;;;;6.05;54.51;100945.38;5060779;28;45212;-44
2022/02/13 09:39:44;;;;;;;;;26.25;26.25;;;;;6.15;54.34;100945.47;5060711;28;45321;-45
2022/02/13 09:42:10;;;;;;;;;24.25;24.25;;;;;6.25;54.65;100937.69;5060722;28;45234;-43
2022/02/13 09:44:36;;;;;;;;;30.75;26.75;;;;;6.36;54.40;100925.56;5060350;28;46240;-44
2022/02/13 09:47:01;;;;;;;;;32.00;29.50;;;;;6.48;54.62;100920.44;5059925;28;45326;-45
2022/02/13 09:49:27;;;;;;;;;28.25;20.50;;;;;6.60;54.60;100919.63;5039961;28;45252;-46
2022/02/13 09:51:53;;;;;;;;;27.25;25.00;;;;;6.67;54.49;100905.72;5039285;28;45786;-43
2022/02/13 09:54:19;;;;;;;;;32.50;27.50;;;;;6.85;54.42;100903.19;5040157;28;46257;-43
2022/02/13 09:56:47;;;;;;;;;30.00;25.50;;;;;6.97;54.57;100892.78;5040302;28;45284;-43
2022/02/13 09:59:13;;;;;;;;;23.75;23.75;;;;;7.12;54.66;100884.13;5040338;28;45170;-43
2022/02/13 10:01:47;;;;;;;;;26.00;25.25;;;;;7.24;54.67;100873.66;5040010;28;45173;-45
2022/02/13 10:04:12;;;;;;;;;31.25;24.50;;;;;7.37;54.57;100866.72;5040187;28;46845;-43
2022/02/13 10:06:39;;;;;;;;;29.25;25.50;;;;;7.51;54.89;100858.00;5038912;28;45792;-44
2022/02/13 10:09:05;;;;;;;;;29.50;25.50;;;;;7.65;54.99;100858.91;5040396;28;45282;-43
2022/02/13 10:11:33;;;;;;;;;27.75;25.00;;;;;7.85;54.66;100858.00;5040007;28;45375;-48
2022/02/13 10:14:04;;;;;;;;;31.75;30.50;;;;;7.98;54.84;100857.13;5039967;28;45362;-45
2022/02/13 10:16:30;;;;;;;;;27.50;24.00;;;;;8.12;54.71;100849.22;5039685;28;45588;-45
2022/02/13 10:19:01;;;;;;;;;28.50;24.00;;;;;8.23;55.08;100839.59;5040165;28;45448;-43
2022/02/13 10:21:35;;;;;;;;;25.50;22.00;;;;;8.34;54.97;100831.72;5040013;28;45326;-43
2022/02/13 10:24:27;;;;;;;;;22.50;21.75;;;;;8.49;55.03;100832.56;5038391;28;45359;-43
2022/02/13 10:27:15;;;;;;;;;23.75;18.75;;;;;8.62;55.03;100821.16;5040102;28;45423;-44
2022/02/13 10:29:41;;;;;;;;;23.75;21.75;;;;;8.72;55.28;100807.13;5039687;28;45241;-43
2022/02/13 10:32:12;;;;;;;;;22.00;21.25;;;;;8.87;54.97;100797.47;5039558;28;45295;-45
2022/02/13 10:34:57;;;;;;;;;26.00;24.00;;;;;9.00;55.04;100791.22;5039522;28;46871;-46
2022/02/13 10:37:55;;;;;;;;;31.75;24.25;;;;;9.15;55.04;100795.50;5039540;28;45372;-46
2022/02/13 10:40:26;;;;;;;;;25.25;23.75;;;;;9.26;55.04;100787.56;5039672;28;45306;-47
2022/02/13 10:43:03;;;;;;;;;19.50;15.50;;;;;9.35;55.19;100794.50;5038062;28;45361;-47
2022/02/13 10:45:30;;;;;;;;;24.00;22.25;;;;;9.46;55.16;100783.88;5039575;28;45407;-45
2022/02/13 10:48:01;;;;;;;;;29.25;26.25;;;;;9.56;55.25;100786.44;5039258;28;46538;-45
2022/02/13 10:50:30;;;;;;;;;24.00;22.50;;;;;9.68;55.24;100785.41;5038494;28;45232;-47
2022/02/13 10:52:59;;;;;;;;;31.00;24.00;;;;;9.76;55.31;100778.34;5039533;28;45389;-43
2022/02/13 10:55:26;;;;;;;;;25.25;22.75;;;;;9.90;55.04;100761.59;5039290;28;46363;-45
2022/02/13 10:57:52;;;;;;;;;27.75;24.50;;;;;10.03;55.19;100759.69;5039573;28;45333;-44
2022/02/13 11:00:18;;;;;;;;;26.50;22.75;;;;;10.09;55.19;100752.59;5039403;28;45298;-45
2022/02/13 11:02:48;;;;;;;;;24.00;22.75;;;;;10.18;55.13;100753.41;5039326;28;45248;-47
2022/02/13 11:05:14;;;;;;;;;24.00;21.75;;;;;10.24;55.11;100738.44;5039304;28;45257;-42
2022/02/13 11:07:50;;;;;;;;;24.75;21.75;;;;;10.35;55.07;100738.28;5039362;28;45251;-47
2022/02/13 11:10:30;;;;;;;;;25.25;20.25;;;;;10.44;55.24;100718.06;5039315;28;45416;-44
2022/02/13 11:12:57;;;;;;;;;26.25;22.25;;;;;10.52;54.97;100722.31;5039375;28;45318;-44
2022/02/13 11:15:27;;;;;;;;;25.75;23.00;;;;;10.62;54.98;100712.53;5039135;28;45445;-47